sensor_id;sensor_type;location;lat;lon;timestamp;P1;durP1;ratioP1;P2;durP2;ratioP2
39022;SDS011;25908;51.984;5.928;2022-11-20T00:00:45;18.45;;;12.00;;
39022;SDS011;25908;51.984;5.928;2022-11-20T00:03:10;17.35;;;10.52;;
39022;SDS011;25908;51.984;5.928;2022-11-20T00:05:37;18.27;;;10.60;;
39022;SDS011;25908;51.984;5.928;2022-11-20T00:08:02;17.50;;;10.05;;
39022;SDS011;25908;51.984;5.928;2022-11-20T00:10:28;53.20;;;34.92;;
39022;SDS011;25908;51.984;5.928;2022-11-20T00:12:53;26.75;;;16.63;;
39022;SDS011;25908;51.984;5.928;2022-11-20T00:15:19;26.25;;;16.63;;
39022;SDS011;25908;51.984;5.928;2022-11-20T00:17:44;18.95;;;11.98;;
39022;SDS011;25908;51.984;5.928;2022-11-20T00:20:10;17.80;;;12.00;;
39022;SDS011;25908;51.984;5.928;2022-11-20T00:22:36;16.50;;;10.63;;
39022;SDS011;25908;51.984;5.928;2022-11-20T00:25:01;16.30;;;10.57;;
39022;SDS011;25908;51.984;5.928;2022-11-20T00:27:27;16.52;;;10.68;;
39022;SDS011;25908;51.984;5.928;2022-11-20T00:29:53;16.88;;;10.82;;
39022;SDS011;25908;51.984;5.928;2022-11-20T00:32:18;19.48;;;10.60;;
39022;SDS011;25908;51.984;5.928;2022-11-20T00:34:44;16.83;;;10.60;;
39022;SDS011;25908;51.984;5.928;2022-11-20T00:37:10;17.67;;;10.90;;
39022;SDS011;25908;51.984;5.928;2022-11-20T00:39:35;19.48;;;10.70;;
39022;SDS011;25908;51.984;5.928;2022-11-20T00:42:01;24.48;;;12.88;;
39022;SDS011;25908;51.984;5.928;2022-11-20T00:44:26;20.80;;;12.32;;
39022;SDS011;25908;51.984;5.928;2022-11-20T00:46:53;18.77;;;10.93;;
39022;SDS011;25908;51.984;5.928;2022-11-20T00:49:18;17.20;;;10.70;;
39022;SDS011;25908;51.984;5.928;2022-11-20T00:51:44;20.50;;;11.63;;
39022;SDS011;25908;51.984;5.928;2022-11-20T00:54:10;20.42;;;11.63;;
39022;SDS011;25908;51.984;5.928;2022-11-20T00:56:35;18.92;;;10.75;;
39022;SDS011;25908;51.984;5.928;2022-11-20T00:59:01;16.35;;;10.48;;
39022;SDS011;25908;51.984;5.928;2022-11-20T01:01:27;18.17;;;11.23;;
39022;SDS011;25908;51.984;5.928;2022-11-20T01:03:55;18.23;;;10.25;;
39022;SDS011;25908;51.984;5.928;2022-11-20T01:06:23;19.85;;;11.52;;
39022;SDS011;25908;51.984;5.928;2022-11-20T01:08:51;19.33;;;10.30;;
39022;SDS011;25908;51.984;5.928;2022-11-20T01:11:23;17.50;;;10.55;;
39022;SDS011;25908;51.984;5.928;2022-11-20T01:13:55;16.77;;;10.50;;
39022;SDS011;25908;51.984;5.928;2022-11-20T01:18:50;16.98;;;10.35;;
39022;SDS011;25908;51.984;5.928;2022-11-20T01:21:18;16.92;;;10.57;;
39022;SDS011;25908;51.984;5.928;2022-11-20T01:23:46;18.52;;;9.77;;
39022;SDS011;25908;51.984;5.928;2022-11-20T01:26:15;18.55;;;10.30;;
39022;SDS011;25908;51.984;5.928;2022-11-20T01:28:42;19.60;;;11.15;;
39022;SDS011;25908;51.984;5.928;2022-11-20T01:31:12;18.15;;;10.55;;
39022;SDS011;25908;51.984;5.928;2022-11-20T01:33:39;20.92;;;11.15;;
39022;SDS011;25908;51.984;5.928;2022-11-20T01:36:06;17.75;;;10.55;;
39022;SDS011;25908;51.984;5.928;2022-11-20T01:38:32;18.10;;;10.65;;
39022;SDS011;25908;51.984;5.928;2022-11-20T01:40:58;17.25;;;10.30;;
39022;SDS011;25908;51.984;5.928;2022-11-20T01:43:23;17.88;;;11.15;;
39022;SDS011;25908;51.984;5.928;2022-11-20T01:48:19;17.75;;;10.65;;
39022;SDS011;25908;51.984;5.928;2022-11-20T01:50:47;16.30;;;9.48;;
39022;SDS011;25908;51.984;5.928;2022-11-20T01:53:14;16.73;;;10.70;;
39022;SDS011;25908;51.984;5.928;2022-11-20T01:55:47;16.42;;;10.38;;
39022;SDS011;25908;51.984;5.928;2022-11-20T01:58:16;17.42;;;10.13;;
39022;SDS011;25908;51.984;5.928;2022-11-20T02:00:43;18.58;;;10.05;;
39022;SDS011;25908;51.984;5.928;2022-11-20T02:03:11;16.15;;;9.93;;
39022;SDS011;25908;51.984;5.928;2022-11-20T02:05:49;16.98;;;10.23;;
39022;SDS011;25908;51.984;5.928;2022-11-20T02:08:31;17.52;;;10.23;;
39022;SDS011;25908;51.984;5.928;2022-11-20T02:10:57;17.50;;;10.30;;
39022;SDS011;25908;51.984;5.928;2022-11-20T02:13:23;19.42;;;11.55;;
39022;SDS011;25908;51.984;5.928;2022-11-20T02:16:15;18.45;;;10.80;;
39022;SDS011;25908;51.984;5.928;2022-11-20T02:18:49;18.88;;;10.63;;
39022;SDS011;25908;51.984;5.928;2022-11-20T02:21:27;17.95;;;10.57;;
39022;SDS011;25908;51.984;5.928;2022-11-20T02:26:25;18.85;;;10.60;;
39022;SDS011;25908;51.984;5.928;2022-11-20T02:28:52;16.77;;;10.55;;
39022;SDS011;25908;51.984;5.928;2022-11-20T02:31:19;17.00;;;9.88;;
39022;SDS011;25908;51.984;5.928;2022-11-20T02:33:45;17.23;;;9.98;;
39022;SDS011;25908;51.984;5.928;2022-11-20T02:36:11;17.95;;;11.25;;
39022;SDS011;25908;51.984;5.928;2022-11-20T02:38:39;17.52;;;10.10;;
39022;SDS011;25908;51.984;5.928;2022-11-20T02:41:06;15.80;;;10.05;;
39022;SDS011;25908;51.984;5.928;2022-11-20T02:43:31;20.52;;;10.85;;
39022;SDS011;25908;51.984;5.928;2022-11-20T02:45:57;16.50;;;10.65;;
39022;SDS011;25908;51.984;5.928;2022-11-20T02:48:22;16.83;;;10.35;;
39022;SDS011;25908;51.984;5.928;2022-11-20T02:50:48;20.75;;;10.38;;
39022;SDS011;25908;51.984;5.928;2022-11-20T02:53:14;14.77;;;9.80;;
39022;SDS011;25908;51.984;5.928;2022-11-20T02:55:39;15.73;;;9.88;;
39022;SDS011;25908;51.984;5.928;2022-11-20T02:58:05;16.15;;;9.60;;
39022;SDS011;25908;51.984;5.928;2022-11-20T03:00:30;16.27;;;9.85;;
39022;SDS011;25908;51.984;5.928;2022-11-20T03:02:56;18.63;;;10.02;;
39022;SDS011;25908;51.984;5.928;2022-11-20T03:05:22;15.10;;;9.35;;
39022;SDS011;25908;51.984;5.928;2022-11-20T03:07:48;15.82;;;9.65;;
39022;SDS011;25908;51.984;5.928;2022-11-20T03:10:13;17.08;;;10.80;;
39022;SDS011;25908;51.984;5.928;2022-11-20T03:12:39;18.08;;;9.93;;
39022;SDS011;25908;51.984;5.928;2022-11-20T03:15:05;18.27;;;10.93;;
39022;SDS011;25908;51.984;5.928;2022-11-20T03:17:30;18.38;;;10.23;;
39022;SDS011;25908;51.984;5.928;2022-11-20T03:19:56;17.42;;;9.77;;
39022;SDS011;25908;51.984;5.928;2022-11-20T03:22:22;16.33;;;9.77;;
39022;SDS011;25908;51.984;5.928;2022-11-20T03:24:47;17.40;;;10.13;;
39022;SDS011;25908;51.984;5.928;2022-11-20T03:27:13;17.88;;;10.35;;
39022;SDS011;25908;51.984;5.928;2022-11-20T03:29:38;17.25;;;9.95;;
39022;SDS011;25908;51.984;5.928;2022-11-20T03:32:04;17.42;;;11.15;;
39022;SDS011;25908;51.984;5.928;2022-11-20T03:34:30;15.98;;;9.77;;
39022;SDS011;25908;51.984;5.928;2022-11-20T03:36:55;17.75;;;10.23;;
39022;SDS011;25908;51.984;5.928;2022-11-20T03:39:21;17.65;;;10.50;;
39022;SDS011;25908;51.984;5.928;2022-11-20T03:41:47;16.95;;;10.45;;
39022;SDS011;25908;51.984;5.928;2022-11-20T03:44:12;18.27;;;10.15;;
39022;SDS011;25908;51.984;5.928;2022-11-20T03:46:38;15.68;;;9.40;;
39022;SDS011;25908;51.984;5.928;2022-11-20T03:49:04;19.02;;;10.95;;
39022;SDS011;25908;51.984;5.928;2022-11-20T03:51:34;16.38;;;10.60;;
39022;SDS011;25908;51.984;5.928;2022-11-20T03:56:31;19.23;;;10.77;;
39022;SDS011;25908;51.984;5.928;2022-11-20T03:58:58;20.55;;;10.65;;
39022;SDS011;25908;51.984;5.928;2022-11-20T04:01:25;17.48;;;10.55;;
39022;SDS011;25908;51.984;5.928;2022-11-20T04:03:53;19.30;;;10.00;;
39022;SDS011;25908;51.984;5.928;2022-11-20T04:06:20;17.80;;;11.02;;
39022;SDS011;25908;51.984;5.928;2022-11-20T04:08:47;18.65;;;10.98;;
39022;SDS011;25908;51.984;5.928;2022-11-20T04:11:15;17.45;;;10.18;;
39022;SDS011;25908;51.984;5.928;2022-11-20T04:13:52;18.10;;;10.38;;
39022;SDS011;25908;51.984;5.928;2022-11-20T04:16:19;17.58;;;9.98;;
39022;SDS011;25908;51.984;5.928;2022-11-20T04:18:45;18.85;;;10.43;;
39022;SDS011;25908;51.984;5.928;2022-11-20T04:21:11;17.95;;;10.35;;
39022;SDS011;25908;51.984;5.928;2022-11-20T04:23:37;18.38;;;10.38;;
39022;SDS011;25908;51.984;5.928;2022-11-20T04:26:04;18.27;;;10.60;;
39022;SDS011;25908;51.984;5.928;2022-11-20T04:28:34;17.08;;;10.23;;
39022;SDS011;25908;51.984;5.928;2022-11-20T04:33:28;18.73;;;10.30;;
39022;SDS011;25908;51.984;5.928;2022-11-20T04:35:54;18.40;;;11.38;;
39022;SDS011;25908;51.984;5.928;2022-11-20T04:38:20;19.45;;;12.02;;
39022;SDS011;25908;51.984;5.928;2022-11-20T04:40:45;18.25;;;11.50;;
39022;SDS011;25908;51.984;5.928;2022-11-20T04:43:11;19.55;;;11.70;;
39022;SDS011;25908;51.984;5.928;2022-11-20T04:45:36;18.15;;;11.15;;
39022;SDS011;25908;51.984;5.928;2022-11-20T04:48:02;20.33;;;11.23;;
39022;SDS011;25908;51.984;5.928;2022-11-20T04:50:27;20.33;;;11.73;;
39022;SDS011;25908;51.984;5.928;2022-11-20T04:52:53;20.73;;;11.43;;
39022;SDS011;25908;51.984;5.928;2022-11-20T04:55:18;21.50;;;11.70;;
39022;SDS011;25908;51.984;5.928;2022-11-20T04:57:44;17.92;;;10.45;;
39022;SDS011;25908;51.984;5.928;2022-11-20T05:00:10;17.08;;;10.15;;
39022;SDS011;25908;51.984;5.928;2022-11-20T05:02:36;18.38;;;10.73;;
39022;SDS011;25908;51.984;5.928;2022-11-20T05:05:01;19.02;;;10.63;;
39022;SDS011;25908;51.984;5.928;2022-11-20T05:07:27;20.25;;;10.35;;
39022;SDS011;25908;51.984;5.928;2022-11-20T05:09:53;18.08;;;11.10;;
39022;SDS011;25908;51.984;5.928;2022-11-20T05:12:18;17.33;;;10.25;;
39022;SDS011;25908;51.984;5.928;2022-11-20T05:14:44;19.92;;;11.63;;
39022;SDS011;25908;51.984;5.928;2022-11-20T05:17:10;16.83;;;10.85;;
39022;SDS011;25908;51.984;5.928;2022-11-20T05:19:36;18.55;;;11.00;;
39022;SDS011;25908;51.984;5.928;2022-11-20T05:22:02;18.45;;;10.80;;
39022;SDS011;25908;51.984;5.928;2022-11-20T05:24:29;19.88;;;11.52;;
39022;SDS011;25908;51.984;5.928;2022-11-20T05:26:55;18.52;;;10.95;;
39022;SDS011;25908;51.984;5.928;2022-11-20T05:29:20;18.40;;;10.05;;
39022;SDS011;25908;51.984;5.928;2022-11-20T05:31:46;19.35;;;12.13;;
39022;SDS011;25908;51.984;5.928;2022-11-20T05:34:11;17.63;;;10.98;;
39022;SDS011;25908;51.984;5.928;2022-11-20T05:36:37;18.38;;;10.55;;
39022;SDS011;25908;51.984;5.928;2022-11-20T05:39:02;18.65;;;11.60;;
39022;SDS011;25908;51.984;5.928;2022-11-20T05:41:28;16.92;;;10.13;;
39022;SDS011;25908;51.984;5.928;2022-11-20T05:43:55;20.95;;;11.82;;
39022;SDS011;25908;51.984;5.928;2022-11-20T05:46:21;18.65;;;10.52;;
39022;SDS011;25908;51.984;5.928;2022-11-20T05:48:47;18.52;;;11.40;;
39022;SDS011;25908;51.984;5.928;2022-11-20T05:51:14;18.23;;;11.13;;
39022;SDS011;25908;51.984;5.928;2022-11-20T05:53:41;18.42;;;11.23;;
39022;SDS011;25908;51.984;5.928;2022-11-20T05:56:08;18.08;;;11.10;;
39022;SDS011;25908;51.984;5.928;2022-11-20T05:58:36;19.45;;;10.73;;
39022;SDS011;25908;51.984;5.928;2022-11-20T06:01:12;16.77;;;10.57;;
39022;SDS011;25908;51.984;5.928;2022-11-20T06:03:40;19.33;;;11.32;;
39022;SDS011;25908;51.984;5.928;2022-11-20T06:06:07;18.27;;;10.70;;
39022;SDS011;25908;51.984;5.928;2022-11-20T06:08:33;22.08;;;11.55;;
39022;SDS011;25908;51.984;5.928;2022-11-20T06:11:02;21.83;;;11.88;;
39022;SDS011;25908;51.984;5.928;2022-11-20T06:13:29;17.65;;;10.57;;
39022;SDS011;25908;51.984;5.928;2022-11-20T06:15:55;21.35;;;11.50;;
39022;SDS011;25908;51.984;5.928;2022-11-20T06:18:20;19.55;;;11.55;;
39022;SDS011;25908;51.984;5.928;2022-11-20T06:20:46;20.15;;;11.80;;
39022;SDS011;25908;51.984;5.928;2022-11-20T06:23:13;19.63;;;11.32;;
39022;SDS011;25908;51.984;5.928;2022-11-20T06:25:41;19.42;;;11.05;;
39022;SDS011;25908;51.984;5.928;2022-11-20T06:28:08;22.15;;;11.35;;
39022;SDS011;25908;51.984;5.928;2022-11-20T06:30:34;19.65;;;11.77;;
39022;SDS011;25908;51.984;5.928;2022-11-20T06:33:00;18.75;;;11.15;;
39022;SDS011;25908;51.984;5.928;2022-11-20T06:35:26;18.63;;;11.57;;
39022;SDS011;25908;51.984;5.928;2022-11-20T06:37:51;19.70;;;12.55;;
39022;SDS011;25908;51.984;5.928;2022-11-20T06:40:17;18.00;;;11.05;;
39022;SDS011;25908;51.984;5.928;2022-11-20T06:42:43;19.73;;;11.43;;
39022;SDS011;25908;51.984;5.928;2022-11-20T06:45:08;19.75;;;12.40;;
39022;SDS011;25908;51.984;5.928;2022-11-20T06:47:34;19.02;;;11.73;;
39022;SDS011;25908;51.984;5.928;2022-11-20T06:50:00;19.48;;;11.90;;
39022;SDS011;25908;51.984;5.928;2022-11-20T06:52:26;19.77;;;11.10;;
39022;SDS011;25908;51.984;5.928;2022-11-20T06:54:51;19.42;;;11.25;;
39022;SDS011;25908;51.984;5.928;2022-11-20T06:57:17;19.08;;;11.55;;
39022;SDS011;25908;51.984;5.928;2022-11-20T06:59:42;19.23;;;11.63;;
39022;SDS011;25908;51.984;5.928;2022-11-20T07:02:11;20.60;;;12.25;;
39022;SDS011;25908;51.984;5.928;2022-11-20T07:04:37;19.00;;;11.98;;
39022;SDS011;25908;51.984;5.928;2022-11-20T07:07:03;22.40;;;13.93;;
39022;SDS011;25908;51.984;5.928;2022-11-20T07:09:30;20.10;;;12.13;;
39022;SDS011;25908;51.984;5.928;2022-11-20T07:11:56;22.00;;;12.90;;
39022;SDS011;25908;51.984;5.928;2022-11-20T07:14:22;32.70;;;18.00;;
39022;SDS011;25908;51.984;5.928;2022-11-20T07:16:47;30.05;;;15.95;;
39022;SDS011;25908;51.984;5.928;2022-11-20T07:19:13;28.55;;;16.13;;
39022;SDS011;25908;51.984;5.928;2022-11-20T07:21:38;27.27;;;15.07;;
39022;SDS011;25908;51.984;5.928;2022-11-20T07:24:04;29.73;;;13.82;;
39022;SDS011;25908;51.984;5.928;2022-11-20T07:26:30;33.75;;;17.10;;
39022;SDS011;25908;51.984;5.928;2022-11-20T07:28:55;37.30;;;19.77;;
39022;SDS011;25908;51.984;5.928;2022-11-20T07:31:21;35.97;;;18.58;;
39022;SDS011;25908;51.984;5.928;2022-11-20T07:33:46;38.33;;;19.65;;
39022;SDS011;25908;51.984;5.928;2022-11-20T07:36:12;34.92;;;18.08;;
39022;SDS011;25908;51.984;5.928;2022-11-20T07:38:38;34.88;;;18.92;;
39022;SDS011;25908;51.984;5.928;2022-11-20T07:41:03;35.42;;;18.85;;
39022;SDS011;25908;51.984;5.928;2022-11-20T07:43:29;32.85;;;17.70;;
39022;SDS011;25908;51.984;5.928;2022-11-20T07:45:55;31.63;;;16.67;;
39022;SDS011;25908;51.984;5.928;2022-11-20T07:48:22;29.30;;;15.95;;
39022;SDS011;25908;51.984;5.928;2022-11-20T07:50:48;28.92;;;16.38;;
39022;SDS011;25908;51.984;5.928;2022-11-20T07:53:13;26.55;;;15.05;;
39022;SDS011;25908;51.984;5.928;2022-11-20T07:55:41;26.52;;;15.88;;
39022;SDS011;25908;51.984;5.928;2022-11-20T07:58:07;31.40;;;17.75;;
39022;SDS011;25908;51.984;5.928;2022-11-20T08:00:32;27.08;;;16.60;;
39022;SDS011;25908;51.984;5.928;2022-11-20T08:02:58;27.15;;;16.00;;
39022;SDS011;25908;51.984;5.928;2022-11-20T08:05:23;24.85;;;15.43;;
39022;SDS011;25908;51.984;5.928;2022-11-20T08:07:49;26.77;;;15.55;;
39022;SDS011;25908;51.984;5.928;2022-11-20T08:10:15;28.08;;;16.23;;
39022;SDS011;25908;51.984;5.928;2022-11-20T08:12:44;26.63;;;17.50;;
39022;SDS011;25908;51.984;5.928;2022-11-20T08:15:30;28.73;;;15.93;;
39022;SDS011;25908;51.984;5.928;2022-11-20T08:18:00;30.98;;;16.95;;
39022;SDS011;25908;51.984;5.928;2022-11-20T08:20:30;25.80;;;16.10;;
39022;SDS011;25908;51.984;5.928;2022-11-20T08:22:57;26.85;;;16.00;;
39022;SDS011;25908;51.984;5.928;2022-11-20T08:27:54;29.33;;;17.50;;
39022;SDS011;25908;51.984;5.928;2022-11-20T08:30:25;29.00;;;16.85;;
39022;SDS011;25908;51.984;5.928;2022-11-20T08:32:52;28.85;;;17.75;;
39022;SDS011;25908;51.984;5.928;2022-11-20T08:35:18;29.48;;;17.52;;
39022;SDS011;25908;51.984;5.928;2022-11-20T08:37:47;35.70;;;17.15;;
39022;SDS011;25908;51.984;5.928;2022-11-20T08:40:13;27.10;;;16.45;;
39022;SDS011;25908;51.984;5.928;2022-11-20T08:42:46;27.85;;;16.98;;
39022;SDS011;25908;51.984;5.928;2022-11-20T08:45:12;29.38;;;17.25;;
39022;SDS011;25908;51.984;5.928;2022-11-20T08:47:38;25.27;;;16.85;;
39022;SDS011;25908;51.984;5.928;2022-11-20T08:50:03;28.67;;;17.27;;
39022;SDS011;25908;51.984;5.928;2022-11-20T08:52:29;28.20;;;16.48;;
39022;SDS011;25908;51.984;5.928;2022-11-20T08:54:55;29.02;;;17.33;;
39022;SDS011;25908;51.984;5.928;2022-11-20T08:57:20;29.35;;;17.60;;
39022;SDS011;25908;51.984;5.928;2022-11-20T08:59:46;35.75;;;23.92;;
39022;SDS011;25908;51.984;5.928;2022-11-20T09:02:11;30.67;;;20.15;;
39022;SDS011;25908;51.984;5.928;2022-11-20T09:04:37;30.27;;;18.70;;
39022;SDS011;25908;51.984;5.928;2022-11-20T09:07:02;27.02;;;17.25;;
39022;SDS011;25908;51.984;5.928;2022-11-20T09:09:28;28.80;;;17.15;;
39022;SDS011;25908;51.984;5.928;2022-11-20T09:11:53;27.35;;;17.02;;
39022;SDS011;25908;51.984;5.928;2022-11-20T09:14:19;28.85;;;17.48;;
39022;SDS011;25908;51.984;5.928;2022-11-20T09:16:46;26.92;;;16.75;;
39022;SDS011;25908;51.984;5.928;2022-11-20T09:19:11;29.15;;;17.23;;
39022;SDS011;25908;51.984;5.928;2022-11-20T09:21:37;30.45;;;18.10;;
39022;SDS011;25908;51.984;5.928;2022-11-20T09:24:03;30.17;;;17.95;;
39022;SDS011;25908;51.984;5.928;2022-11-20T09:26:29;31.85;;;18.55;;
39022;SDS011;25908;51.984;5.928;2022-11-20T09:28:55;31.30;;;17.65;;
39022;SDS011;25908;51.984;5.928;2022-11-20T09:31:24;28.17;;;17.40;;
39022;SDS011;25908;51.984;5.928;2022-11-20T09:33:51;30.45;;;18.45;;
39022;SDS011;25908;51.984;5.928;2022-11-20T09:36:17;31.08;;;20.65;;
39022;SDS011;25908;51.984;5.928;2022-11-20T09:38:43;31.17;;;18.67;;
39022;SDS011;25908;51.984;5.928;2022-11-20T09:47:13;35.25;;;21.30;;
39022;SDS011;25908;51.984;5.928;2022-11-20T09:50:13;32.47;;;19.73;;
39022;SDS011;25908;51.984;5.928;2022-11-20T09:53:01;29.48;;;18.27;;
39022;SDS011;25908;51.984;5.928;2022-11-20T09:55:38;28.85;;;17.65;;
39022;SDS011;25908;51.984;5.928;2022-11-20T09:58:11;28.88;;;18.23;;
39022;SDS011;25908;51.984;5.928;2022-11-20T10:00:42;26.52;;;16.60;;
39022;SDS011;25908;51.984;5.928;2022-11-20T10:03:21;27.67;;;17.77;;
39022;SDS011;25908;51.984;5.928;2022-11-20T10:06:00;33.65;;;20.25;;
39022;SDS011;25908;51.984;5.928;2022-11-20T10:08:29;35.60;;;20.90;;
39022;SDS011;25908;51.984;5.928;2022-11-20T10:19:25;36.35;;;19.73;;
39022;SDS011;25908;51.984;5.928;2022-11-20T10:32:38;36.53;;;19.73;;
39022;SDS011;25908;51.984;5.928;2022-11-20T10:35:23;35.60;;;20.77;;
39022;SDS011;25908;51.984;5.928;2022-11-20T10:38:07;35.97;;;20.88;;
39022;SDS011;25908;51.984;5.928;2022-11-20T10:40:52;34.45;;;20.33;;
39022;SDS011;25908;51.984;5.928;2022-11-20T10:43:44;34.58;;;20.48;;
39022;SDS011;25908;51.984;5.928;2022-11-20T10:46:15;35.33;;;20.73;;
39022;SDS011;25908;51.984;5.928;2022-11-20T10:48:45;37.10;;;21.10;;
39022;SDS011;25908;51.984;5.928;2022-11-20T10:51:21;36.55;;;22.98;;
39022;SDS011;25908;51.984;5.928;2022-11-20T10:53:57;36.20;;;21.35;;
39022;SDS011;25908;51.984;5.928;2022-11-20T11:01:53;34.35;;;20.67;;
39022;SDS011;25908;51.984;5.928;2022-11-20T11:04:28;36.13;;;21.92;;
39022;SDS011;25908;51.984;5.928;2022-11-20T11:06:54;34.03;;;21.63;;
39022;SDS011;25908;51.984;5.928;2022-11-20T11:09:30;34.78;;;21.65;;
39022;SDS011;25908;51.984;5.928;2022-11-20T11:12:01;34.42;;;21.55;;
39022;SDS011;25908;51.984;5.928;2022-11-20T11:14:30;38.03;;;22.58;;
39022;SDS011;25908;51.984;5.928;2022-11-20T11:20:05;34.30;;;20.30;;
39022;SDS011;25908;51.984;5.928;2022-11-20T11:22:45;32.22;;;21.08;;
39022;SDS011;25908;51.984;5.928;2022-11-20T11:28:21;31.98;;;19.48;;
39022;SDS011;25908;51.984;5.928;2022-11-20T11:30:49;31.08;;;19.13;;
39022;SDS011;25908;51.984;5.928;2022-11-20T11:33:22;31.52;;;19.15;;
39022;SDS011;25908;51.984;5.928;2022-11-20T11:35:54;28.70;;;18.58;;
39022;SDS011;25908;51.984;5.928;2022-11-20T11:38:29;31.00;;;19.15;;
39022;SDS011;25908;51.984;5.928;2022-11-20T11:41:09;29.15;;;18.77;;
39022;SDS011;25908;51.984;5.928;2022-11-20T11:43:48;31.30;;;19.25;;
39022;SDS011;25908;51.984;5.928;2022-11-20T11:46:49;29.95;;;19.73;;
39022;SDS011;25908;51.984;5.928;2022-11-20T11:49:19;31.30;;;18.90;;
39022;SDS011;25908;51.984;5.928;2022-11-20T11:51:47;31.15;;;19.20;;
39022;SDS011;25908;51.984;5.928;2022-11-20T11:54:42;34.08;;;20.52;;
39022;SDS011;25908;51.984;5.928;2022-11-20T11:57:23;32.95;;;20.27;;
39022;SDS011;25908;51.984;5.928;2022-11-20T12:00:12;33.30;;;19.92;;
39022;SDS011;25908;51.984;5.928;2022-11-20T12:08:19;32.72;;;21.40;;
39022;SDS011;25908;51.984;5.928;2022-11-20T12:10:53;34.70;;;22.25;;
39022;SDS011;25908;51.984;5.928;2022-11-20T12:13:32;33.65;;;23.30;;
39022;SDS011;25908;51.984;5.928;2022-11-20T12:16:15;37.33;;;22.63;;
39022;SDS011;25908;51.984;5.928;2022-11-20T12:18:43;33.85;;;22.90;;
39022;SDS011;25908;51.984;5.928;2022-11-20T12:31:50;31.88;;;20.83;;
39022;SDS011;25908;51.984;5.928;2022-11-20T12:34:39;32.05;;;20.83;;
39022;SDS011;25908;51.984;5.928;2022-11-20T12:40:02;29.40;;;19.70;;
39022;SDS011;25908;51.984;5.928;2022-11-20T12:45:44;51.67;;;32.38;;
39022;SDS011;25908;51.984;5.928;2022-11-20T12:56:23;33.13;;;23.35;;
39022;SDS011;25908;51.984;5.928;2022-11-20T12:59:14;34.08;;;23.83;;
39022;SDS011;25908;51.984;5.928;2022-11-20T13:07:31;29.98;;;20.17;;
39022;SDS011;25908;51.984;5.928;2022-11-20T13:10:00;31.80;;;21.40;;
39022;SDS011;25908;51.984;5.928;2022-11-20T13:12:31;30.40;;;21.70;;
39022;SDS011;25908;51.984;5.928;2022-11-20T13:17:52;31.17;;;20.67;;
39022;SDS011;25908;51.984;5.928;2022-11-20T13:20:22;32.17;;;22.65;;
39022;SDS011;25908;51.984;5.928;2022-11-20T13:22:49;32.50;;;20.77;;
39022;SDS011;25908;51.984;5.928;2022-11-20T13:25:27;34.25;;;23.20;;
39022;SDS011;25908;51.984;5.928;2022-11-20T13:27:55;39.17;;;24.30;;
39022;SDS011;25908;51.984;5.928;2022-11-20T13:30:26;34.42;;;22.35;;
39022;SDS011;25908;51.984;5.928;2022-11-20T13:32:57;34.30;;;22.52;;
39022;SDS011;25908;51.984;5.928;2022-11-20T13:38:07;34.53;;;22.65;;
39022;SDS011;25908;51.984;5.928;2022-11-20T13:40:36;36.05;;;23.48;;
39022;SDS011;25908;51.984;5.928;2022-11-20T13:43:07;36.75;;;23.58;;
39022;SDS011;25908;51.984;5.928;2022-11-20T13:45:53;34.60;;;22.30;;
39022;SDS011;25908;51.984;5.928;2022-11-20T13:48:24;35.65;;;24.08;;
39022;SDS011;25908;51.984;5.928;2022-11-20T13:50:59;35.55;;;22.27;;
39022;SDS011;25908;51.984;5.928;2022-11-20T13:53:42;37.42;;;23.10;;
39022;SDS011;25908;51.984;5.928;2022-11-20T13:58:52;37.65;;;24.65;;
39022;SDS011;25908;51.984;5.928;2022-11-20T14:01:28;36.58;;;23.50;;
39022;SDS011;25908;51.984;5.928;2022-11-20T14:03:59;38.60;;;26.70;;
39022;SDS011;25908;51.984;5.928;2022-11-20T14:06:32;37.83;;;24.23;;
39022;SDS011;25908;51.984;5.928;2022-11-20T14:09:03;40.17;;;24.00;;
39022;SDS011;25908;51.984;5.928;2022-11-20T14:11:29;41.38;;;26.52;;
39022;SDS011;25908;51.984;5.928;2022-11-20T14:16:45;38.85;;;24.30;;
39022;SDS011;25908;51.984;5.928;2022-11-20T14:21:44;45.42;;;27.10;;
39022;SDS011;25908;51.984;5.928;2022-11-20T14:24:10;59.70;;;33.83;;
39022;SDS011;25908;51.984;5.928;2022-11-20T14:26:43;63.17;;;33.05;;
39022;SDS011;25908;51.984;5.928;2022-11-20T14:29:20;40.97;;;27.73;;
39022;SDS011;25908;51.984;5.928;2022-11-20T14:31:50;39.00;;;25.58;;
39022;SDS011;25908;51.984;5.928;2022-11-20T14:34:19;40.50;;;26.25;;
39022;SDS011;25908;51.984;5.928;2022-11-20T14:36:47;40.38;;;26.40;;
39022;SDS011;25908;51.984;5.928;2022-11-20T14:39:22;44.03;;;29.08;;
39022;SDS011;25908;51.984;5.928;2022-11-20T14:41:55;41.25;;;26.77;;
39022;SDS011;25908;51.984;5.928;2022-11-20T14:44:21;42.75;;;26.35;;
39022;SDS011;25908;51.984;5.928;2022-11-20T14:46:51;39.15;;;25.50;;
39022;SDS011;25908;51.984;5.928;2022-11-20T14:49:19;42.58;;;25.10;;
39022;SDS011;25908;51.984;5.928;2022-11-20T14:51:45;40.00;;;25.98;;
39022;SDS011;25908;51.984;5.928;2022-11-20T14:54:12;41.90;;;27.67;;
39022;SDS011;25908;51.984;5.928;2022-11-20T14:56:40;43.67;;;26.15;;
39022;SDS011;25908;51.984;5.928;2022-11-20T14:59:07;42.92;;;26.38;;
39022;SDS011;25908;51.984;5.928;2022-11-20T15:01:34;39.50;;;26.45;;
39022;SDS011;25908;51.984;5.928;2022-11-20T15:06:34;40.20;;;26.38;;
39022;SDS011;25908;51.984;5.928;2022-11-20T15:09:02;40.75;;;25.63;;
39022;SDS011;25908;51.984;5.928;2022-11-20T15:11:30;40.97;;;25.73;;
39022;SDS011;25908;51.984;5.928;2022-11-20T15:13:58;42.25;;;27.90;;
39022;SDS011;25908;51.984;5.928;2022-11-20T15:18:55;38.97;;;25.02;;
39022;SDS011;25908;51.984;5.928;2022-11-20T15:21:20;40.10;;;24.83;;
39022;SDS011;25908;51.984;5.928;2022-11-20T15:23:46;39.45;;;24.92;;
39022;SDS011;25908;51.984;5.928;2022-11-20T15:26:12;41.92;;;28.33;;
39022;SDS011;25908;51.984;5.928;2022-11-20T15:28:41;40.28;;;25.65;;
39022;SDS011;25908;51.984;5.928;2022-11-20T15:31:11;41.90;;;25.55;;
39022;SDS011;25908;51.984;5.928;2022-11-20T15:33:38;39.90;;;26.33;;
39022;SDS011;25908;51.984;5.928;2022-11-20T15:36:04;39.75;;;26.20;;
39022;SDS011;25908;51.984;5.928;2022-11-20T15:38:30;42.15;;;27.25;;
39022;SDS011;25908;51.984;5.928;2022-11-20T15:40:56;43.05;;;26.33;;
39022;SDS011;25908;51.984;5.928;2022-11-20T15:43:22;40.97;;;26.17;;
39022;SDS011;25908;51.984;5.928;2022-11-20T15:45:49;44.55;;;27.02;;
39022;SDS011;25908;51.984;5.928;2022-11-20T15:48:30;44.75;;;28.55;;
39022;SDS011;25908;51.984;5.928;2022-11-20T15:51:02;52.03;;;34.50;;
39022;SDS011;25908;51.984;5.928;2022-11-20T15:53:31;45.28;;;28.90;;
39022;SDS011;25908;51.984;5.928;2022-11-20T15:55:57;44.33;;;27.40;;
39022;SDS011;25908;51.984;5.928;2022-11-20T15:58:22;47.55;;;30.95;;
39022;SDS011;25908;51.984;5.928;2022-11-20T16:00:49;47.08;;;29.25;;
39022;SDS011;25908;51.984;5.928;2022-11-20T16:03:15;45.22;;;27.60;;
39022;SDS011;25908;51.984;5.928;2022-11-20T16:05:41;43.08;;;27.58;;
39022;SDS011;25908;51.984;5.928;2022-11-20T16:08:07;46.08;;;28.33;;
39022;SDS011;25908;51.984;5.928;2022-11-20T16:10:33;45.60;;;29.17;;
39022;SDS011;25908;51.984;5.928;2022-11-20T16:12:59;45.17;;;29.50;;
39022;SDS011;25908;51.984;5.928;2022-11-20T16:15:44;45.13;;;29.65;;